createdAt,value
2018-08-18T00:02:03.105Z,27.30
2018-08-18T00:04:37.545Z,27.10
2018-08-18T00:07:11.891Z,27.10
2018-08-18T00:09:47.560Z,26.90
2018-08-18T00:12:28.972Z,26.80
2018-08-18T00:15:10.841Z,26.70
2018-08-18T00:17:45.432Z,26.50
2018-08-18T00:20:22.639Z,26.50
2018-08-18T00:22:57.038Z,26.40
2018-08-18T00:25:44.428Z,26.50
2018-08-18T00:28:21.165Z,26.60
2018-08-18T00:30:57.160Z,26.30
2018-08-18T00:33:32.712Z,26.30
2018-08-18T00:36:07.048Z,26.30
2018-08-18T00:38:41.706Z,26.20
2018-08-18T00:41:16.038Z,26.40
2018-08-18T00:43:50.555Z,26.30
2018-08-18T00:46:26.203Z,26.10
2018-08-18T00:49:02.153Z,26.10
2018-08-18T00:51:42.768Z,25.90
2018-08-18T00:54:18.657Z,25.70
2018-08-18T00:56:59.017Z,25.70
2018-08-18T00:59:39.100Z,25.90
2018-08-18T01:02:14.492Z,26.10
2018-08-18T01:04:54.304Z,26.20
2018-08-18T01:07:32.151Z,26.20
2018-08-18T01:10:06.597Z,26.30
2018-08-18T01:12:42.490Z,26.30
2018-08-18T01:15:21.848Z,26.40
2018-08-18T01:17:56.733Z,26.40
2018-08-18T01:20:31.515Z,26.40
2018-08-18T01:25:47.740Z,26.40
2018-08-18T01:28:22.342Z,26.40
2018-08-18T01:31:08.126Z,26.50
2018-08-18T01:33:44.315Z,26.50
2018-08-18T01:36:18.799Z,26.60
2018-08-18T01:38:53.205Z,26.50
2018-08-18T01:41:27.703Z,26.50
2018-08-18T01:44:19.263Z,26.60
2018-08-18T01:46:54.462Z,26.70
2018-08-18T01:52:25.111Z,26.60
2018-08-18T01:55:01.005Z,26.50
2018-08-18T01:57:36.731Z,26.40
2018-08-18T02:00:27.147Z,26.40
2018-08-18T02:03:07.832Z,26.50
2018-08-18T03:43:49.071Z,24.70
2018-08-18T03:46:23.547Z,24.70
2018-08-18T03:48:59.414Z,25.10
2018-08-18T03:51:41.103Z,25.50
2018-08-18T03:54:17.088Z,25.70
2018-08-18T03:56:52.317Z,25.90
2018-08-18T03:59:26.752Z,25.80
2018-08-18T04:02:01.604Z,25.90
2018-08-18T04:04:37.203Z,26.10
2018-08-18T04:07:11.700Z,26.20
2018-08-18T04:12:29.515Z,26.20
2018-08-18T04:15:04.083Z,26.10
2018-08-18T04:17:39.998Z,26.10
2018-08-18T04:20:15.018Z,26.20
2018-08-18T04:22:51.782Z,26.10
2018-08-18T04:25:26.227Z,26.10
2018-08-18T04:28:01.166Z,26.00
2018-08-18T04:30:35.483Z,26.10
2018-08-18T04:33:15.936Z,26.10
2018-08-18T04:35:57.596Z,26.10
2018-08-18T04:38:32.022Z,26.10
2018-08-18T04:41:08.591Z,26.10
2018-08-18T04:43:44.601Z,26.10
2018-08-18T04:46:19.135Z,26.10
2018-08-18T04:48:54.948Z,26.10
2018-08-18T04:51:30.792Z,26.20
2018-08-18T04:54:06.647Z,26.20
2018-08-18T04:56:41.614Z,26.10
2018-08-18T04:59:16.029Z,26.10
2018-08-18T05:01:50.638Z,26.10
2018-08-18T05:04:25.145Z,26.00
2018-08-18T05:06:59.723Z,26.00
2018-08-18T05:09:35.443Z,25.90
2018-08-18T05:12:17.216Z,25.90
2018-08-18T05:14:53.235Z,25.90
2018-08-18T05:17:29.023Z,25.80
2018-08-18T05:20:12.613Z,25.70
2018-08-18T05:22:47.403Z,25.70
2018-08-18T05:25:28.789Z,25.70
2018-08-18T05:28:03.671Z,25.90
2018-08-18T05:30:38.049Z,25.90
2018-08-18T05:33:16.754Z,26.00
2018-08-18T05:35:52.414Z,26.00
2018-08-18T05:38:26.859Z,26.00
2018-08-18T05:41:03.945Z,26.10
2018-08-18T05:43:38.436Z,26.00
2018-08-18T05:46:12.903Z,26.00
2018-08-18T05:48:55.647Z,26.00
2018-08-18T05:51:35.306Z,26.00
2018-08-18T05:54:13.450Z,26.00
2018-08-18T05:56:48.261Z,26.10
2018-08-18T05:59:22.680Z,26.00
2018-08-18T06:01:57.508Z,25.90
2018-08-18T06:04:31.847Z,25.90
2018-08-18T06:07:06.356Z,25.90
2018-08-18T06:09:42.163Z,25.90
2018-08-18T06:12:20.135Z,26.00
2018-08-18T06:14:54.508Z,26.10
2018-08-18T06:17:32.094Z,26.20
2018-08-18T06:20:07.287Z,26.20
2018-08-18T06:22:41.797Z,26.30
2018-08-18T06:25:16.378Z,26.50
2018-08-18T06:27:51.759Z,26.70
2018-08-18T06:30:26.276Z,26.70
2018-08-18T06:33:01.628Z,26.80
2018-08-18T06:35:37.280Z,26.90
2018-08-18T06:38:12.118Z,26.90
2018-08-18T06:41:03.857Z,26.90
2018-08-18T06:43:38.194Z,27.00
2018-08-18T06:46:13.007Z,27.00
2018-08-18T06:48:56.211Z,27.00
2018-08-18T06:51:32.075Z,27.10
2018-08-18T06:54:07.896Z,27.30
2018-08-18T06:56:42.356Z,27.40
2018-08-18T06:59:17.782Z,27.70
2018-08-18T07:01:52.272Z,27.80
2018-08-18T07:04:27.623Z,27.60
2018-08-18T07:07:02.350Z,27.70
2018-08-18T07:09:38.312Z,27.80
2018-08-18T07:12:14.011Z,27.70
2018-08-18T07:14:48.666Z,27.80
2018-08-18T07:17:23.400Z,27.90
2018-08-18T07:19:59.316Z,28.10
2018-08-18T07:22:34.608Z,28.30
2018-08-18T07:25:09.360Z,28.30
2018-08-18T07:27:44.535Z,28.50
2018-08-18T07:30:18.935Z,28.50
2018-08-18T07:32:54.748Z,28.70
2018-08-18T07:35:30.572Z,28.70
2018-08-18T07:38:05.199Z,28.90
2018-08-18T07:40:42.497Z,29.10
2018-08-18T07:43:22.854Z,29.20
2018-08-18T07:46:00.175Z,29.30
2018-08-18T07:48:51.022Z,29.40
2018-08-18T07:51:26.768Z,29.40
2018-08-18T07:54:02.715Z,29.30
2018-08-18T07:56:37.129Z,29.40
2018-08-18T07:59:12.331Z,28.90
2018-08-18T08:01:46.804Z,28.40
2018-08-18T08:04:21.535Z,28.50
2018-08-18T08:06:57.605Z,28.70
2018-08-18T08:09:33.456Z,28.90
2018-08-18T08:12:10.164Z,28.90
2018-08-18T08:14:44.660Z,28.90
2018-08-18T08:17:18.911Z,28.80
2018-08-18T08:19:53.521Z,28.60
2018-08-18T08:22:29.460Z,28.50
2018-08-18T08:25:05.124Z,28.60
2018-08-18T08:27:40.438Z,28.30
2018-08-18T08:30:15.937Z,28.40
2018-08-18T08:32:51.519Z,28.50
2018-08-18T08:35:27.490Z,28.20
2018-08-18T08:38:01.788Z,28.10
2018-08-18T08:40:37.998Z,28.20
2018-08-18T08:43:26.568Z,28.30
2018-08-18T08:46:01.056Z,28.20
2018-08-18T08:48:35.416Z,28.20
2018-08-18T08:51:11.455Z,28.00
2018-08-18T08:53:49.559Z,28.00
2018-08-18T08:56:29.251Z,28.10
2018-08-18T08:59:04.101Z,28.30
2018-08-18T09:01:38.480Z,28.60
2018-08-18T09:04:14.625Z,28.50
2018-08-18T09:06:53.284Z,28.00
2018-08-18T09:09:29.171Z,28.40
2018-08-18T09:12:07.202Z,28.90
2018-08-18T09:14:41.827Z,29.10
2018-08-18T09:17:16.208Z,29.50
2018-08-18T09:19:50.951Z,29.80
2018-08-18T09:22:27.456Z,29.40
2018-08-18T09:25:09.312Z,29.20
2018-08-18T09:27:48.000Z,29.40
2018-08-18T09:30:35.288Z,29.70
2018-08-18T09:33:17.088Z,30.00
2018-08-18T09:36:00.091Z,29.60
2018-08-18T09:38:34.539Z,29.40
2018-08-18T09:41:10.595Z,29.60
2018-08-18T09:43:46.840Z,29.90
2018-08-18T09:46:21.448Z,29.70
2018-08-18T09:49:02.036Z,29.20
2018-08-18T09:51:40.863Z,29.30
2018-08-18T09:54:16.409Z,29.70
2018-08-18T09:56:51.003Z,29.80
2018-08-18T10:04:36.088Z,29.20
2018-08-18T10:07:11.699Z,29.20
2018-08-18T10:09:47.541Z,29.30
2018-08-18T10:12:23.548Z,29.50
2018-08-18T10:14:58.271Z,29.90
2018-08-18T10:17:32.748Z,30.10
2018-08-18T10:20:07.151Z,29.50
2018-08-18T10:22:43.844Z,28.90
2018-08-18T10:25:18.220Z,28.90
2018-08-18T10:27:52.818Z,29.30
2018-08-18T10:30:28.949Z,29.70
2018-08-18T10:35:46.594Z,29.90
2018-08-18T10:38:21.134Z,29.90
2018-08-18T10:40:56.921Z,30.20
2018-08-18T10:43:32.115Z,30.30
2018-08-18T10:46:06.481Z,29.90
2018-08-18T10:48:41.489Z,30.00
2018-08-18T10:51:29.122Z,29.90
2018-08-18T10:54:05.027Z,29.40
2018-08-18T10:56:39.379Z,28.60
2018-08-18T10:59:25.052Z,29.00
2018-08-18T11:02:06.463Z,29.50
2018-08-18T11:04:41.228Z,29.60
2018-08-18T11:07:15.846Z,29.60
2018-08-18T11:09:59.825Z,29.40
2018-08-18T11:12:37.903Z,29.80
2018-08-18T11:15:13.054Z,30.30
2018-08-18T11:17:49.005Z,30.40
2018-08-18T11:20:24.769Z,30.50
2018-08-18T11:23:06.406Z,30.70
2018-08-18T11:25:57.735Z,30.70
2018-08-18T11:28:32.822Z,30.50
2018-08-18T11:31:07.583Z,30.80
2018-08-18T11:33:44.986Z,30.60
2018-08-18T11:36:20.839Z,30.70
2018-08-18T11:38:55.368Z,30.80
2018-08-18T11:44:05.815Z,30.90
2018-08-18T11:46:44.438Z,30.80
2018-08-18T11:49:20.924Z,30.90
2018-08-18T11:51:56.777Z,30.60
2018-08-18T11:54:32.578Z,30.40
2018-08-18T11:57:09.024Z,30.70
2018-08-18T11:59:43.611Z,30.40
2018-08-18T12:02:18.046Z,30.30
2018-08-18T12:04:52.798Z,29.80
2018-08-18T12:07:34.055Z,30.00
2018-08-18T12:10:10.219Z,30.10
2018-08-18T12:12:50.991Z,30.20
2018-08-18T12:15:25.595Z,30.30
2018-08-18T12:33:27.773Z,30.90
2018-08-18T18:18:21.643Z,31.10
2018-08-18T18:20:56.465Z,32.30
2018-08-18T18:23:30.992Z,32.30
2018-08-18T18:26:07.584Z,32.10
2018-08-18T18:28:42.647Z,32.00
2018-08-18T18:31:17.573Z,32.00
2018-08-18T18:33:58.091Z,32.00
2018-08-18T18:36:35.512Z,31.90
2018-08-18T18:39:17.968Z,31.80
2018-08-18T18:41:53.808Z,31.80
2018-08-18T18:44:29.615Z,31.80
2018-08-18T18:47:05.535Z,31.80
2018-08-18T18:49:42.822Z,31.80
2018-08-18T18:52:18.658Z,31.60
2018-08-18T18:54:59.760Z,31.50
2018-08-18T18:57:34.300Z,31.40
2018-08-18T19:00:09.231Z,31.40
2018-08-18T19:02:44.088Z,31.30
2018-08-18T19:05:23.815Z,31.10
2018-08-18T19:08:10.080Z,31.10
2018-08-18T19:10:46.272Z,31.10
2018-08-18T19:13:22.414Z,31.10
2018-08-18T19:15:58.575Z,31.10
2018-08-18T19:18:32.996Z,31.10
2018-08-18T19:21:07.442Z,31.00
2018-08-18T19:23:42.090Z,31.10
2018-08-18T19:26:16.880Z,31.00
2018-08-18T19:28:51.710Z,31.00
2018-08-18T19:31:32.711Z,31.00
2018-08-18T19:34:12.763Z,31.00
2018-08-18T19:37:00.215Z,30.80
2018-08-18T19:39:37.380Z,30.80
2018-08-18T19:42:18.356Z,30.70
2018-08-18T19:44:53.181Z,30.70
2018-08-18T19:47:36.311Z,30.60
2018-08-18T19:50:12.280Z,30.70
2018-08-18T19:52:55.883Z,30.60
2018-08-18T19:55:31.944Z,30.50
2018-08-18T19:58:06.259Z,30.50
2018-08-18T20:00:40.664Z,30.40
2018-08-18T20:03:15.972Z,30.30
2018-08-18T20:05:51.648Z,30.30
2018-08-18T20:08:28.578Z,30.30
2018-08-18T20:11:04.220Z,30.30
2018-08-18T20:13:39.941Z,30.30
2018-08-18T20:16:15.879Z,30.30
2018-08-18T20:18:50.321Z,30.20
2018-08-18T20:21:26.764Z,30.20
2018-08-18T20:24:01.353Z,30.20
2018-08-18T20:26:37.464Z,30.20
2018-08-18T20:29:11.927Z,30.20
2018-08-18T20:31:56.738Z,30.10
2018-08-18T20:34:33.101Z,30.10
2018-08-18T20:37:20.368Z,30.00
2018-08-18T20:39:57.021Z,29.90
2018-08-18T20:42:38.481Z,29.90
2018-08-18T20:45:13.729Z,29.90
2018-08-18T20:47:49.971Z,29.90
2018-08-18T20:50:26.059Z,29.80
2018-08-18T20:53:08.595Z,29.80
2018-08-18T20:55:46.482Z,29.90
2018-08-18T20:58:22.470Z,29.80
2018-08-18T21:00:56.928Z,29.90
2018-08-18T21:03:46.229Z,29.80
2018-08-18T21:06:22.315Z,29.70
2018-08-18T21:08:58.352Z,29.70
2018-08-18T21:11:33.914Z,29.60
2018-08-18T21:14:09.586Z,29.50
2018-08-18T21:16:46.348Z,29.50
2018-08-18T21:19:27.934Z,29.50
2018-08-18T21:22:04.097Z,29.40
2018-08-18T21:24:38.763Z,29.20
2018-08-18T21:27:13.465Z,29.20
2018-08-18T21:29:47.908Z,29.20
2018-08-18T21:32:23.483Z,29.10
2018-08-18T21:34:59.208Z,29.10
2018-08-18T21:37:33.767Z,28.90
2018-08-18T21:40:12.571Z,28.90
2018-08-18T21:42:47.415Z,28.90
2018-08-18T21:45:22.068Z,28.90
2018-08-18T21:47:56.841Z,28.90
2018-08-18T21:50:41.687Z,28.90
2018-08-18T21:53:17.486Z,29.00
2018-08-18T21:55:53.487Z,28.80
2018-08-18T21:58:34.580Z,28.80
2018-08-18T22:01:37.452Z,28.80
2018-08-18T22:04:12.235Z,28.80
2018-08-18T22:06:46.787Z,28.60
2018-08-18T22:09:28.898Z,28.60
2018-08-18T22:12:09.507Z,28.70
2018-08-18T22:14:44.074Z,28.80
2018-08-18T22:17:19.905Z,28.80
2018-08-18T22:19:54.184Z,28.90
2018-08-18T22:22:28.775Z,28.60
2018-08-18T22:25:04.792Z,28.60
2018-08-18T22:27:39.327Z,28.70
2018-08-18T22:30:15.079Z,28.60
2018-08-18T22:32:50.951Z,28.30
2018-08-18T22:35:26.826Z,28.10
2018-08-18T22:38:01.152Z,28.30
2018-08-18T22:40:37.175Z,28.50
2018-08-18T22:43:11.627Z,28.60
2018-08-18T22:45:45.913Z,28.60
2018-08-18T22:48:20.288Z,28.60
2018-08-18T22:50:56.322Z,28.70
2018-08-18T22:53:35.149Z,28.70
2018-08-18T22:56:11.023Z,28.80
2018-08-18T22:58:54.402Z,28.80
2018-08-18T23:11:50.176Z,28.70
2018-08-18T23:14:26.232Z,28.60
2018-08-18T23:17:02.143Z,28.60
2018-08-18T23:19:36.599Z,28.60
2018-08-18T23:22:22.486Z,28.40
2018-08-18T23:24:58.448Z,28.40
2018-08-18T23:27:32.943Z,28.40
2018-08-18T23:30:08.531Z,28.40
2018-08-18T23:32:42.807Z,28.60
2018-08-18T23:35:18.480Z,28.60
2018-08-18T23:37:53.187Z,28.50
2018-08-18T23:40:29.425Z,28.50
2018-08-18T23:43:03.998Z,28.50
2018-08-18T23:45:43.668Z,28.30
2018-08-18T23:48:18.091Z,28.30
2018-08-18T23:50:53.819Z,28.30
2018-08-18T23:53:28.280Z,28.30
2018-08-18T23:56:04.072Z,28.40
2018-08-18T23:58:39.971Z,28.40
